createdAt,value
2022-11-08T00:03:03.135Z,100316.16
2022-11-08T00:08:23.667Z,100309.41
2022-11-08T00:13:43.637Z,100307.84
2022-11-08T00:18:46.726Z,100300.38
2022-11-08T00:23:48.290Z,100297.13
2022-11-08T00:28:49.800Z,100287.03
2022-11-08T00:33:51.250Z,100277.03
2022-11-08T00:38:52.719Z,100278.03
2022-11-08T00:43:54.198Z,100268.88
2022-11-08T00:48:55.686Z,100257.19
2022-11-08T00:53:57.154Z,100258.97
2022-11-08T00:58:59.375Z,100264.22
2022-11-08T01:04:00.893Z,100266.03
2022-11-08T01:09:03.286Z,100259.44
2022-11-08T01:14:04.955Z,100257.97
2022-11-08T01:19:06.530Z,100256.44
2022-11-08T01:24:08.556Z,100254.06
2022-11-08T01:29:10.027Z,100252.53
2022-11-08T01:34:11.491Z,100234.94
2022-11-08T01:39:13.006Z,100229.22
2022-11-08T01:44:17.145Z,100219.19
2022-11-08T01:49:32.053Z,100219.38
2022-11-08T01:54:43.011Z,100208.50
2022-11-08T01:59:47.460Z,100190.94
2022-11-08T02:04:49.178Z,100197.00
2022-11-08T02:09:50.707Z,100190.31
2022-11-08T02:14:52.279Z,100183.72
2022-11-08T02:19:54.024Z,100175.41
2022-11-08T02:24:58.389Z,100174.59
2022-11-08T02:29:59.901Z,100185.75
2022-11-08T02:35:01.624Z,100183.44
2022-11-08T02:40:04.224Z,100170.94
2022-11-08T02:45:07.106Z,100170.19
2022-11-08T02:50:09.015Z,100175.34
2022-11-08T02:55:10.522Z,100179.66
2022-11-08T03:00:12.908Z,100187.34
2022-11-08T03:05:14.378Z,100189.09
2022-11-08T03:10:16.444Z,100193.41
2022-11-08T03:15:17.990Z,100197.69
2022-11-08T03:20:19.543Z,100191.81
2022-11-08T03:25:21.048Z,100201.06
2022-11-08T03:30:22.556Z,100199.22
2022-11-08T03:35:24.410Z,100195.75
2022-11-08T03:40:26.569Z,100193.16
2022-11-08T03:45:28.059Z,100188.19
2022-11-08T03:50:29.554Z,100187.44
2022-11-08T03:55:31.353Z,100179.13
2022-11-08T04:00:35.868Z,100179.19
2022-11-08T04:05:37.330Z,100177.59
2022-11-08T04:10:38.868Z,100175.97
2022-11-08T04:15:40.466Z,100170.13
2022-11-08T04:21:03.073Z,100154.06
2022-11-08T04:26:06.994Z,100156.50
2022-11-08T04:31:11.946Z,100157.44
2022-11-08T04:36:16.354Z,100150.84
2022-11-08T04:41:20.515Z,100146.78
2022-11-08T04:46:25.984Z,100136.78
2022-11-08T04:51:31.095Z,100131.72
2022-11-08T04:56:33.163Z,100140.09
2022-11-08T05:01:34.849Z,100129.09
2022-11-08T05:06:36.408Z,100124.84
2022-11-08T05:11:37.921Z,100126.44
2022-11-08T05:16:39.377Z,100127.22
2022-11-08T05:21:59.319Z,100123.84
2022-11-08T05:27:00.797Z,100116.22
2022-11-08T05:32:02.283Z,100118.66
2022-11-08T05:37:03.833Z,100108.47
2022-11-08T05:42:05.617Z,100092.47
2022-11-08T05:47:07.151Z,100101.78
2022-11-08T05:52:08.620Z,100090.00
2022-11-08T05:57:10.106Z,100070.66
2022-11-08T06:02:11.691Z,100069.75
2022-11-08T06:07:13.351Z,100059.59
2022-11-08T06:12:14.825Z,100062.03
2022-11-08T06:17:16.318Z,100071.41
2022-11-08T06:22:17.809Z,100081.56
2022-11-08T06:27:19.258Z,100086.59
2022-11-08T06:32:21.050Z,100093.19
2022-11-08T06:37:22.501Z,100093.84
2022-11-08T06:42:24.241Z,100093.56
2022-11-08T06:47:25.785Z,100110.88
2022-11-08T06:52:27.313Z,100110.53
2022-11-08T06:57:28.846Z,100104.34
2022-11-08T07:02:30.473Z,100105.63
2022-11-08T07:07:32.038Z,100097.38
2022-11-08T07:12:33.494Z,100109.38
2022-11-08T07:17:38.813Z,100112.97
2022-11-08T07:22:40.515Z,100092.44
2022-11-08T07:27:41.999Z,100098.25
2022-11-08T07:32:43.450Z,100096.38
2022-11-08T07:37:44.998Z,100104.00
2022-11-08T07:48:12.354Z,100107.97
2022-11-08T07:53:14.535Z,100090.97
2022-11-08T07:58:16.695Z,100095.81
2022-11-08T08:03:19.360Z,100097.03
2022-11-08T08:08:21.547Z,100097.84
2022-11-08T08:13:23.069Z,100108.13
2022-11-08T08:18:24.521Z,100116.34
2022-11-08T08:23:26.056Z,100121.81
2022-11-08T08:28:27.610Z,100127.03
2022-11-08T08:33:34.449Z,100130.66
2022-11-08T08:38:41.463Z,100138.25
2022-11-08T08:43:45.712Z,100133.03
2022-11-08T08:48:47.176Z,100131.50
2022-11-08T08:53:48.655Z,100134.75
2022-11-08T09:04:11.801Z,100140.63
2022-11-08T09:09:13.238Z,100132.78
2022-11-08T09:14:14.730Z,100134.03
2022-11-08T09:19:16.247Z,100136.78
2022-11-08T09:24:18.041Z,100132.44
2022-11-08T09:29:19.592Z,100123.75
2022-11-08T09:34:21.861Z,100126.84
2022-11-08T09:39:23.500Z,100123.88
2022-11-08T09:44:43.610Z,100121.75
2022-11-08T09:49:50.328Z,100126.41
2022-11-08T09:55:00.621Z,100125.69
2022-11-08T10:00:05.840Z,100122.00
2022-11-08T10:05:15.295Z,100124.78
2022-11-08T10:10:50.892Z,100113.19
2022-11-08T10:16:03.844Z,100115.25
2022-11-08T10:21:22.974Z,100097.09
2022-11-08T10:26:42.689Z,100093.06
2022-11-08T10:31:47.816Z,100085.44
2022-11-08T10:36:54.776Z,100077.31
2022-11-08T10:42:08.154Z,100077.84
2022-11-08T10:47:25.001Z,100067.84
2022-11-08T10:52:39.952Z,100077.28
2022-11-08T10:57:45.212Z,100070.97
2022-11-08T11:02:50.767Z,100063.44
2022-11-08T11:08:02.033Z,100053.97
2022-11-08T11:13:10.175Z,100052.03
2022-11-08T11:18:32.722Z,100049.06
2022-11-08T11:23:42.336Z,100054.06
2022-11-08T11:29:05.536Z,100048.44
2022-11-08T11:34:18.973Z,100045.69
2022-11-08T11:39:39.634Z,100041.00
2022-11-08T11:45:28.739Z,100023.34
2022-11-08T11:50:39.322Z,100014.97
2022-11-08T11:55:55.734Z,100010.75
2022-11-08T12:01:10.470Z,100011.59
2022-11-08T12:06:44.423Z,99996.13
2022-11-08T12:12:08.977Z,99999.66
2022-11-08T12:17:26.775Z,100001.84
2022-11-08T12:22:45.579Z,99999.47
2022-11-08T12:27:52.439Z,99996.75
2022-11-08T12:33:13.024Z,99992.34
2022-11-08T12:38:27.911Z,99975.59
2022-11-08T12:43:46.543Z,99965.63
2022-11-08T12:49:20.465Z,99969.06
2022-11-08T12:54:37.253Z,99954.75
2022-11-08T12:59:43.379Z,99947.72
2022-11-08T13:05:18.859Z,99941.66
2022-11-08T13:10:43.294Z,99941.56
2022-11-08T13:16:32.959Z,99944.53
2022-11-08T13:21:38.458Z,99945.69
2022-11-08T13:26:43.516Z,99949.59
2022-11-08T13:31:57.128Z,99951.13
2022-11-08T13:37:17.421Z,99950.81
2022-11-08T13:42:18.863Z,99948.66
2022-11-08T13:47:32.367Z,99945.88
2022-11-08T13:53:01.149Z,99940.72
2022-11-08T13:58:02.745Z,99937.63
2022-11-08T14:03:33.132Z,99940.31
2022-11-08T14:08:42.090Z,99936.69
2022-11-08T14:14:12.626Z,99930.00
2022-11-08T14:19:19.057Z,99921.88
2022-11-08T14:24:24.541Z,99930.72
2022-11-08T14:29:26.151Z,99922.09
2022-11-08T14:34:38.031Z,99918.47
2022-11-08T14:39:39.486Z,99920.13
2022-11-08T14:44:44.080Z,99912.63
2022-11-08T14:49:47.947Z,99917.84
2022-11-08T14:54:59.987Z,99922.69
2022-11-08T15:00:13.358Z,99921.44
2022-11-08T15:05:30.384Z,99920.69
2022-11-08T15:10:32.103Z,99921.47
2022-11-08T15:15:34.282Z,99916.28
2022-11-08T15:20:35.738Z,99912.13
2022-11-08T15:25:38.309Z,99908.41
2022-11-08T15:30:43.245Z,99903.22
2022-11-08T15:35:46.970Z,99898.78
2022-11-08T15:40:57.833Z,99889.50
2022-11-08T15:46:01.155Z,99893.72
2022-11-08T15:51:04.352Z,99894.78
2022-11-08T15:56:06.020Z,99886.22
2022-11-08T16:01:17.915Z,99889.25
2022-11-08T16:06:19.506Z,99888.72
2022-11-08T16:11:23.566Z,99882.22
2022-11-08T16:16:25.200Z,99881.59
2022-11-08T16:21:26.676Z,99878.91
2022-11-08T16:26:28.308Z,99886.47
2022-11-08T16:31:29.808Z,99876.56
2022-11-08T16:36:31.385Z,99877.69
2022-11-08T16:41:33.161Z,99873.81
2022-11-08T16:46:34.775Z,99881.88
2022-11-08T16:51:36.221Z,99885.00
2022-11-08T16:56:37.653Z,99890.47
2022-11-08T17:01:40.100Z,99901.84
2022-11-08T17:06:41.902Z,99900.53
2022-11-08T17:11:43.491Z,99902.69
2022-11-08T17:16:44.964Z,99898.78
2022-11-08T17:21:46.459Z,99913.19
2022-11-08T17:26:48.090Z,99918.75
2022-11-08T17:31:50.092Z,99919.47
2022-11-08T17:36:52.958Z,99927.31
2022-11-08T17:41:54.490Z,99934.59
2022-11-08T17:46:56.041Z,99934.59
2022-11-08T17:51:57.547Z,99940.50
2022-11-08T17:56:59.150Z,99939.69
2022-11-08T18:02:00.986Z,99937.41
2022-11-08T18:07:02.688Z,99938.53
2022-11-08T18:12:04.692Z,99935.69
2022-11-08T18:17:06.178Z,99935.13
2022-11-08T18:22:07.738Z,99936.31
2022-11-08T18:27:09.664Z,99936.88
2022-11-08T18:32:11.109Z,99935.22
2022-11-08T18:37:12.530Z,99925.34
2022-11-08T18:42:14.020Z,99913.41
2022-11-08T18:47:15.462Z,99920.47
2022-11-08T18:52:16.940Z,99917.69
2022-11-08T18:57:19.730Z,99931.16
2022-11-08T19:02:22.103Z,99913.00
2022-11-08T19:07:24.335Z,99910.63
2022-11-08T19:12:28.783Z,99922.94
2022-11-08T19:17:31.903Z,99916.09
2022-11-08T19:22:33.381Z,99915.66
2022-11-08T19:27:34.906Z,99930.13
2022-11-08T19:32:36.365Z,99930.88
2022-11-08T19:37:37.895Z,99929.00
2022-11-08T19:42:42.581Z,99924.72
2022-11-08T19:47:44.168Z,99934.88
2022-11-08T19:52:45.618Z,99938.88
2022-11-08T19:57:47.508Z,99937.53
2022-11-08T20:02:49.075Z,99934.72
2022-11-08T20:07:50.608Z,99942.25
2022-11-08T20:12:52.061Z,99952.47
2022-11-08T20:17:53.572Z,99949.34
2022-11-08T20:22:55.109Z,99958.97
2022-11-08T20:27:56.569Z,99961.38
2022-11-08T20:32:58.068Z,99970.09
2022-11-08T20:37:59.505Z,99975.88
2022-11-08T20:43:00.966Z,99964.09
2022-11-08T20:48:02.952Z,99980.72
2022-11-08T20:53:04.617Z,99991.50
2022-11-08T20:58:06.101Z,99995.28
2022-11-08T21:03:07.664Z,100001.09
2022-11-08T21:08:57.859Z,99998.53
2022-11-08T21:13:34.077Z,100005.38
2022-11-08T21:18:36.780Z,100036.63
2022-11-08T21:23:39.998Z,100024.00
2022-11-08T21:28:41.797Z,100022.91
2022-11-08T21:33:43.626Z,100023.03
2022-11-08T21:38:45.536Z,100014.31
2022-11-08T21:43:47.679Z,100003.19
2022-11-08T21:49:00.732Z,100013.50
2022-11-08T21:54:02.985Z,99997.50
2022-11-08T21:59:04.515Z,100003.97
2022-11-08T22:04:05.985Z,100007.16
2022-11-08T22:09:07.475Z,100019.63
2022-11-08T22:14:09.004Z,100009.16
2022-11-08T22:19:10.671Z,100001.97
2022-11-08T22:24:23.060Z,99995.84
2022-11-08T22:29:24.577Z,100000.69
2022-11-08T22:34:26.113Z,99976.50
2022-11-08T22:39:27.589Z,99966.34
2022-11-08T22:44:29.136Z,99952.41
2022-11-08T22:49:30.587Z,99943.38
2022-11-08T22:54:32.041Z,99943.84
2022-11-08T22:59:33.486Z,99940.84
2022-11-08T23:04:34.895Z,99927.56
2022-11-08T23:09:36.370Z,99928.38
2022-11-08T23:14:56.219Z,99918.75
2022-11-08T23:20:16.034Z,99921.63
2022-11-08T23:25:17.511Z,99936.94
2022-11-08T23:30:37.791Z,99922.81
2022-11-08T23:35:59.314Z,99945.56
2022-11-08T23:41:19.114Z,99932.59
2022-11-08T23:46:20.558Z,99945.69
2022-11-08T23:51:22.023Z,99951.34
2022-11-08T23:56:26.071Z,99950.44
